createdAt,value
2022-11-05T00:00:36.203Z,99278.40
2022-11-05T00:03:33.838Z,99292.20
2022-11-05T00:06:27.965Z,99296.60
2022-11-05T00:09:19.275Z,99315.80
2022-11-05T00:12:11.502Z,99325.60
2022-11-05T00:15:02.934Z,99337.60
2022-11-05T00:17:37.951Z,99342.20
2022-11-05T00:20:14.883Z,99346.60
2022-11-05T00:23:06.706Z,99352.20
2022-11-05T00:25:41.084Z,99354.40
2022-11-05T00:28:14.874Z,99366.40
2022-11-05T00:30:48.547Z,99367.60
2022-11-05T00:33:22.730Z,99375.40
2022-11-05T00:35:56.568Z,99377.80
2022-11-05T00:38:32.126Z,99376.00
2022-11-05T00:41:06.037Z,99378.00
2022-11-05T00:44:11.803Z,99375.20
2022-11-05T00:46:46.488Z,99381.60
2022-11-05T00:49:32.422Z,99383.00
2022-11-05T00:52:20.084Z,99385.80
2022-11-05T00:54:53.986Z,99391.80
2022-11-05T00:57:28.079Z,99395.00
2022-11-05T01:00:01.756Z,99389.20
2022-11-05T01:02:35.595Z,99397.40
2022-11-05T01:05:10.643Z,99403.00
2022-11-05T01:07:45.095Z,99408.20
2022-11-05T01:10:19.029Z,99416.40
2022-11-05T01:12:52.948Z,99418.00
2022-11-05T01:15:26.853Z,99419.40
2022-11-05T01:18:00.514Z,99428.40
2022-11-05T01:20:34.576Z,99432.20
2022-11-05T01:23:13.200Z,99441.20
2022-11-05T01:25:47.685Z,99449.20
2022-11-05T01:28:21.508Z,99442.00
2022-11-05T01:31:00.939Z,99446.20
2022-11-05T01:33:34.646Z,99444.60
2022-11-05T01:36:10.015Z,99450.20
2022-11-05T01:38:43.855Z,99451.20
2022-11-05T01:41:17.913Z,99447.40
2022-11-05T01:43:56.522Z,99452.60
2022-11-05T01:46:35.410Z,99454.40
2022-11-05T01:49:19.397Z,99458.80
2022-11-05T01:51:56.255Z,99458.20
2022-11-05T01:54:36.206Z,99469.20
2022-11-05T01:57:15.095Z,99465.20
2022-11-05T01:59:58.949Z,99469.00
2022-11-05T02:02:36.468Z,99468.60
2022-11-05T02:05:15.105Z,99470.80
2022-11-05T02:07:53.314Z,99471.60
2022-11-05T02:10:30.106Z,99480.80
2022-11-05T02:13:05.343Z,99475.20
2022-11-05T02:15:58.116Z,99474.80
2022-11-05T02:18:53.090Z,99472.20
2022-11-05T02:22:11.139Z,99480.20
2022-11-05T02:25:25.106Z,99490.20
2022-11-05T02:28:33.741Z,99494.80
2022-11-05T02:31:20.070Z,99504.60
2022-11-05T02:34:11.115Z,99511.80
2022-11-05T02:36:59.095Z,99515.80
2022-11-05T02:39:48.719Z,99523.00
2022-11-05T02:42:38.122Z,99531.00
2022-11-05T02:45:32.201Z,99535.80
2022-11-05T02:48:23.103Z,99541.40
2022-11-05T02:59:30.024Z,99573.60
2022-11-05T03:02:06.688Z,99574.00
2022-11-05T03:04:41.031Z,99569.80
2022-11-05T03:07:38.459Z,99584.40
2022-11-05T03:10:42.465Z,99591.00
2022-11-05T03:13:24.251Z,99596.40
2022-11-05T03:16:05.950Z,99603.00
2022-11-05T03:18:51.648Z,99606.00
2022-11-05T03:21:37.308Z,99604.80
2022-11-05T03:24:17.984Z,99604.80
2022-11-05T03:27:01.708Z,99612.80
2022-11-05T03:29:44.266Z,99620.20
2022-11-05T03:32:22.559Z,99626.60
2022-11-05T03:35:03.076Z,99631.40
2022-11-05T03:37:43.231Z,99635.80
2022-11-05T03:40:20.041Z,99640.40
2022-11-05T03:42:58.436Z,99642.20
2022-11-05T03:45:40.072Z,99643.20
2022-11-05T03:48:18.032Z,99655.20
2022-11-05T03:51:02.145Z,99663.00
2022-11-05T03:53:42.550Z,99672.00
2022-11-05T03:56:24.984Z,99670.60
2022-11-05T03:59:01.054Z,99676.00
2022-11-05T04:01:37.958Z,99681.00
2022-11-05T04:04:12.520Z,99683.20
2022-11-05T04:07:04.357Z,99687.60
2022-11-05T04:09:56.017Z,99685.40
2022-11-05T04:12:47.595Z,99693.00
2022-11-05T04:15:21.827Z,99704.40
2022-11-05T04:17:59.158Z,99719.80
2022-11-05T04:20:50.913Z,99724.40
2022-11-05T04:23:42.549Z,99730.00
2022-11-05T04:26:16.358Z,99733.80
2022-11-05T04:29:08.041Z,99734.00
2022-11-05T04:31:42.230Z,99728.40
2022-11-05T04:34:19.018Z,99733.80
2022-11-05T04:36:53.934Z,99741.40
2022-11-05T04:39:27.704Z,99737.60
2022-11-05T04:42:01.758Z,99744.00
2022-11-05T04:44:36.339Z,99747.00
2022-11-05T04:47:10.290Z,99741.60
2022-11-05T04:49:44.511Z,99744.00
2022-11-05T04:52:18.299Z,99742.00
2022-11-05T04:54:52.834Z,99741.00
2022-11-05T04:57:26.632Z,99740.40
2022-11-05T05:00:00.396Z,99745.60
2022-11-05T05:02:34.372Z,99748.80
2022-11-05T05:05:09.355Z,99753.20
2022-11-05T05:07:43.659Z,99763.20
2022-11-05T05:10:18.047Z,99756.80
2022-11-05T05:12:51.959Z,99760.60
2022-11-05T05:15:25.905Z,99765.40
2022-11-05T05:17:59.964Z,99771.60
2022-11-05T05:20:51.641Z,99780.00
2022-11-05T05:23:25.242Z,99782.40
2022-11-05T05:26:01.684Z,99784.20
2022-11-05T05:28:35.628Z,99784.20
2022-11-05T05:31:09.777Z,99780.00
2022-11-05T05:33:43.549Z,99774.80
2022-11-05T05:36:17.347Z,99769.60
2022-11-05T05:38:51.663Z,99775.20
2022-11-05T05:41:26.281Z,99774.40
2022-11-05T05:44:00.302Z,99773.80
2022-11-05T05:46:34.501Z,99774.00
2022-11-05T06:00:20.292Z,99816.20
2022-11-05T06:02:56.478Z,99823.40
2022-11-05T06:05:30.365Z,99830.20
2022-11-05T06:08:04.301Z,99837.00
2022-11-05T06:10:38.335Z,99842.20
2022-11-05T06:13:12.947Z,99845.80
2022-11-05T06:15:47.491Z,99846.60
2022-11-05T06:18:21.483Z,99857.80
2022-11-05T06:20:56.131Z,99865.20
2022-11-05T06:23:30.711Z,99872.00
2022-11-05T06:26:09.979Z,99877.20
2022-11-05T06:28:44.053Z,99881.60
2022-11-05T06:31:19.166Z,99891.80
2022-11-05T06:33:53.082Z,99899.60
2022-11-05T06:36:26.974Z,99903.40
2022-11-05T06:39:00.885Z,99907.40
2022-11-05T06:41:45.595Z,99913.00
2022-11-05T06:44:28.503Z,99911.20
2022-11-05T06:47:02.724Z,99911.00
2022-11-05T06:49:36.927Z,99910.40
2022-11-05T06:52:10.879Z,99910.80
2022-11-05T06:54:45.454Z,99917.20
2022-11-05T06:57:19.705Z,99924.60
2022-11-05T06:59:59.928Z,99935.00
2022-11-05T07:02:35.447Z,99946.40
2022-11-05T07:05:11.787Z,99949.80
2022-11-05T07:07:47.154Z,99945.00
2022-11-05T07:10:22.237Z,99951.60
2022-11-05T07:12:56.239Z,99952.80
2022-11-05T07:15:30.007Z,99958.40
2022-11-05T07:18:07.439Z,99966.80
2022-11-05T07:20:41.625Z,99956.00
2022-11-05T07:23:18.515Z,99955.00
2022-11-05T07:25:53.289Z,99961.40
2022-11-05T07:28:27.248Z,99972.20
2022-11-05T07:31:02.785Z,99976.80
2022-11-05T07:33:37.158Z,99984.20
2022-11-05T07:36:13.836Z,99994.80
2022-11-05T07:38:48.033Z,99993.80
2022-11-05T07:41:22.372Z,99992.60
2022-11-05T07:43:57.127Z,99995.80
2022-11-05T07:46:32.013Z,100001.60
2022-11-05T07:49:06.269Z,100004.40
2022-11-05T07:51:40.646Z,100014.20
2022-11-05T07:54:15.322Z,100023.00
2022-11-05T07:56:52.709Z,100031.40
2022-11-05T07:59:27.359Z,100030.20
2022-11-05T08:02:02.388Z,100035.20
2022-11-05T08:04:37.047Z,100033.40
2022-11-05T08:07:11.324Z,100028.20
2022-11-05T08:09:45.473Z,100033.00
2022-11-05T08:12:19.906Z,100032.80
2022-11-05T08:14:54.684Z,100033.40
2022-11-05T08:17:28.844Z,100037.20
2022-11-05T08:20:03.196Z,100038.40
2022-11-05T08:22:37.778Z,100039.80
2022-11-05T08:25:14.412Z,100040.80
2022-11-05T08:27:56.054Z,100046.00
2022-11-05T08:30:30.879Z,100053.80
2022-11-05T08:33:11.202Z,100047.80
2022-11-05T08:35:46.076Z,100052.80
2022-11-05T08:38:21.717Z,100057.20
2022-11-05T08:41:01.135Z,100060.40
2022-11-05T08:43:35.054Z,100064.80
2022-11-05T08:46:09.441Z,100062.20
2022-11-05T08:48:43.206Z,100066.40
2022-11-05T08:51:17.075Z,100077.60
2022-11-05T09:04:57.386Z,100111.20
2022-11-05T09:07:31.334Z,100110.20
2022-11-05T09:10:05.330Z,100117.60
2022-11-05T09:12:39.243Z,100120.20
2022-11-05T09:15:15.016Z,100121.40
2022-11-05T09:17:50.364Z,100125.80
2022-11-05T09:20:27.573Z,100125.40
2022-11-05T09:23:01.476Z,100128.40
2022-11-05T09:25:35.497Z,100131.00
2022-11-05T09:28:20.332Z,100134.80
2022-11-05T09:30:55.750Z,100133.60
2022-11-05T09:33:30.304Z,100138.40
2022-11-05T09:36:06.056Z,100149.80
2022-11-05T09:38:40.379Z,100153.20
2022-11-05T09:41:28.348Z,100152.60
2022-11-05T09:44:07.064Z,100156.20
2022-11-05T09:46:49.339Z,100160.00
2022-11-05T09:49:30.551Z,100161.80
2022-11-05T09:52:05.708Z,100157.80
2022-11-05T09:54:40.411Z,100159.60
2022-11-05T09:57:22.101Z,100157.40
2022-11-05T10:00:02.063Z,100157.20
2022-11-05T10:02:55.693Z,100157.60
2022-11-05T10:05:32.629Z,100156.20
2022-11-05T10:08:13.289Z,100154.60
2022-11-05T10:10:52.337Z,100159.20
2022-11-05T10:13:35.490Z,100158.40
2022-11-05T10:16:25.316Z,100152.80
2022-11-05T10:19:09.858Z,100160.40
2022-11-05T10:22:05.492Z,100161.20
2022-11-05T10:24:43.482Z,100163.40
2022-11-05T10:27:24.392Z,100169.00
2022-11-05T10:29:58.800Z,100174.00
2022-11-05T10:32:36.721Z,100181.40
2022-11-05T10:35:18.528Z,100181.60
2022-11-05T10:37:53.749Z,100177.20
2022-11-05T10:40:40.865Z,100177.00
2022-11-05T10:43:23.305Z,100179.60
2022-11-05T10:46:10.665Z,100185.00
2022-11-05T10:49:02.161Z,100186.40
2022-11-05T10:51:36.401Z,100188.80
2022-11-05T10:54:20.759Z,100190.40
2022-11-05T10:56:54.875Z,100190.80
2022-11-05T10:59:31.329Z,100197.80
2022-11-05T11:02:18.353Z,100202.60
2022-11-05T11:04:58.580Z,100197.40
2022-11-05T11:07:33.087Z,100194.00
2022-11-05T11:10:08.446Z,100188.40
2022-11-05T11:12:45.918Z,100189.20
2022-11-05T11:15:27.419Z,100192.40
2022-11-05T11:18:19.050Z,100189.20
2022-11-05T11:20:52.859Z,100199.20
2022-11-05T11:23:26.689Z,100198.20
2022-11-05T11:26:04.360Z,100196.60
2022-11-05T11:28:44.189Z,100207.40
2022-11-05T11:31:22.819Z,100208.20
2022-11-05T11:34:04.307Z,100206.60
2022-11-05T11:36:46.656Z,100210.60
2022-11-05T11:39:25.922Z,100215.40
2022-11-05T11:42:04.131Z,100221.40
2022-11-05T11:44:45.778Z,100230.20
2022-11-05T11:47:23.534Z,100235.80
2022-11-05T11:50:00.212Z,100230.40
2022-11-05T11:52:37.546Z,100234.00
2022-11-05T11:55:27.712Z,100233.60
2022-11-05T11:58:11.685Z,100232.60
2022-11-05T12:00:51.719Z,100237.40
2022-11-05T12:03:36.743Z,100239.20
2022-11-05T12:06:20.278Z,100245.60
2022-11-05T12:09:07.103Z,100252.20
2022-11-05T12:11:49.010Z,100250.00
2022-11-05T12:14:35.728Z,100253.00
2022-11-05T12:17:35.160Z,100250.00
2022-11-05T12:20:39.694Z,100253.80
2022-11-05T12:23:47.233Z,100256.20
2022-11-05T12:26:36.123Z,100259.20
2022-11-05T12:29:35.898Z,100253.00
2022-11-05T12:32:47.992Z,100259.60
2022-11-05T12:35:50.931Z,100261.60
2022-11-05T12:39:04.422Z,100264.00
2022-11-05T12:41:54.149Z,100270.00
2022-11-05T12:44:55.648Z,100271.80
2022-11-05T12:47:57.086Z,100264.00
2022-11-05T12:50:40.078Z,100261.80
2022-11-05T12:53:41.878Z,100264.00
2022-11-05T12:56:21.479Z,100263.60
2022-11-05T12:59:04.557Z,100260.00
2022-11-05T13:01:44.659Z,100269.40
2022-11-05T13:04:31.652Z,100267.80
2022-11-05T13:07:10.782Z,100260.40
2022-11-05T13:09:52.604Z,100258.00
2022-11-05T13:12:29.435Z,100257.20
2022-11-05T13:15:12.405Z,100259.60
2022-11-05T13:17:56.643Z,100243.20
2022-11-05T13:20:34.334Z,100253.40
2022-11-05T13:23:18.761Z,100262.60
2022-11-05T13:26:03.479Z,100267.40
2022-11-05T13:28:46.931Z,100267.60
2022-11-05T13:31:28.761Z,100271.20
2022-11-05T13:34:11.283Z,100279.20
2022-11-05T13:37:13.090Z,100286.40
2022-11-05T13:39:56.103Z,100296.00
2022-11-05T13:43:26.611Z,100304.40
2022-11-05T13:46:18.233Z,100316.00
2022-11-05T13:49:17.367Z,100319.40
2022-11-05T13:51:57.224Z,100322.20
2022-11-05T13:55:12.719Z,100329.20
2022-11-05T13:58:15.900Z,100327.80
2022-11-05T14:01:19.550Z,100316.80
2022-11-05T14:03:57.613Z,100315.00
2022-11-05T14:06:35.557Z,100312.60
2022-11-05T14:09:17.853Z,100316.40
2022-11-05T14:11:58.487Z,100315.60
2022-11-05T14:14:42.552Z,100311.40
2022-11-05T14:17:32.610Z,100319.00
2022-11-05T14:20:43.832Z,100322.00
2022-11-05T14:23:51.368Z,100330.40
2022-11-05T14:26:28.965Z,100339.40
2022-11-05T14:29:43.217Z,100348.60
2022-11-05T14:32:50.168Z,100355.60
2022-11-05T14:35:42.163Z,100361.00
2022-11-05T14:38:27.665Z,100367.60
2022-11-05T14:41:06.855Z,100374.60
2022-11-05T14:43:47.716Z,100380.00
2022-11-05T14:46:21.807Z,100384.00
2022-11-05T14:49:09.101Z,100385.40
2022-11-05T14:51:49.094Z,100387.80
2022-11-05T14:54:29.657Z,100384.00
2022-11-05T14:57:05.120Z,100390.00
2022-11-05T14:59:58.542Z,100389.00
2022-11-05T15:02:39.395Z,100395.20
2022-11-05T15:05:41.290Z,100405.00
2022-11-05T15:08:39.044Z,100407.40
2022-11-05T15:11:21.459Z,100416.00
2022-11-05T15:14:06.933Z,100424.60
2022-11-05T15:16:50.046Z,100428.80
2022-11-05T15:19:30.276Z,100429.00
2022-11-05T15:22:11.841Z,100433.60
2022-11-05T15:24:46.823Z,100441.60
2022-11-05T15:27:45.671Z,100443.80
2022-11-05T15:30:25.805Z,100443.60
2022-11-05T15:33:11.286Z,100445.80
2022-11-05T15:35:45.340Z,100444.20
2022-11-05T15:38:34.146Z,100441.40
2022-11-05T15:41:16.925Z,100444.20
2022-11-05T15:43:51.797Z,100455.20
2022-11-05T15:46:28.341Z,100460.80
2022-11-05T15:49:07.157Z,100468.00
2022-11-05T15:51:41.289Z,100468.80
2022-11-05T15:54:30.342Z,100468.60
2022-11-05T15:57:07.663Z,100478.00
2022-11-05T15:59:48.737Z,100485.40
2022-11-05T16:02:37.831Z,100488.20
2022-11-05T16:05:17.707Z,100491.40
2022-11-05T16:07:53.669Z,100497.20
2022-11-05T16:10:33.914Z,100499.20
2022-11-05T16:13:36.138Z,100504.20
2022-11-05T16:16:35.685Z,100508.40
2022-11-05T16:19:43.712Z,100512.40
2022-11-05T16:22:20.982Z,100512.00
2022-11-05T16:24:55.663Z,100517.80
2022-11-05T16:27:31.916Z,100513.80
2022-11-05T16:30:27.667Z,100515.60
2022-11-05T16:33:15.690Z,100519.20
2022-11-05T16:35:53.919Z,100527.80
2022-11-05T16:38:29.701Z,100525.40
2022-11-05T16:41:05.904Z,100527.80
2022-11-05T16:43:41.042Z,100533.80
2022-11-05T16:46:16.676Z,100533.20
2022-11-05T16:48:53.060Z,100538.40
2022-11-05T17:00:00.333Z,100554.20
2022-11-05T17:02:34.695Z,100559.40
2022-11-05T17:05:13.949Z,100557.00
2022-11-05T17:07:48.778Z,100559.40
2022-11-05T17:10:24.183Z,100565.40
2022-11-05T17:12:58.509Z,100565.00
2022-11-05T17:15:36.046Z,100573.40
2022-11-05T17:18:16.949Z,100572.20
2022-11-05T17:20:54.912Z,100571.60
2022-11-05T17:23:30.003Z,100577.00
2022-11-05T17:26:08.244Z,100581.80
2022-11-05T17:28:43.473Z,100582.60
2022-11-05T17:31:18.458Z,100587.60
2022-11-05T17:33:57.755Z,100592.60
2022-11-05T17:36:32.140Z,100596.80
2022-11-05T17:39:06.540Z,100590.40
2022-11-05T17:41:40.481Z,100591.20
2022-11-05T17:44:16.022Z,100593.20
2022-11-05T17:46:50.040Z,100587.80
2022-11-05T17:49:23.976Z,100589.80
2022-11-05T17:51:57.885Z,100595.80
2022-11-05T17:54:32.447Z,100598.60
2022-11-05T17:57:07.416Z,100596.80
2022-11-05T17:59:42.103Z,100603.40
2022-11-05T18:02:17.154Z,100607.60
2022-11-05T18:04:51.987Z,100617.00
2022-11-05T18:07:26.170Z,100616.20
2022-11-05T18:10:00.526Z,100622.80
2022-11-05T18:12:35.157Z,100626.40
2022-11-05T18:15:11.303Z,100626.80
2022-11-05T18:17:46.801Z,100632.40
2022-11-05T18:20:21.993Z,100632.40
2022-11-05T18:22:56.111Z,100636.20
2022-11-05T18:25:30.250Z,100635.80
2022-11-05T18:28:05.986Z,100637.60
2022-11-05T18:30:42.237Z,100639.20
2022-11-05T18:33:16.381Z,100640.20
2022-11-05T18:35:50.510Z,100643.40
2022-11-05T18:38:24.928Z,100648.80
2022-11-05T18:40:59.106Z,100654.20
2022-11-05T18:43:33.711Z,100653.80
2022-11-05T18:46:07.863Z,100655.20
2022-11-05T18:48:42.010Z,100660.80
2022-11-05T18:51:18.353Z,100662.20
2022-11-05T18:53:53.517Z,100667.40
2022-11-05T18:56:28.424Z,100673.00
2022-11-05T18:59:30.449Z,100675.20
2022-11-05T19:01:57.434Z,100678.20
2022-11-05T19:04:32.032Z,100678.00
2022-11-05T19:07:09.009Z,100680.20
2022-11-05T19:09:43.684Z,100685.80
2022-11-05T19:12:18.127Z,100688.60
2022-11-05T19:14:53.881Z,100698.20
2022-11-05T19:17:31.477Z,100706.00
2022-11-05T19:20:07.733Z,100699.80
2022-11-05T19:22:41.840Z,100710.40
2022-11-05T19:25:17.334Z,100713.00
2022-11-05T19:27:51.678Z,100711.60
2022-11-05T19:30:25.811Z,100716.80
2022-11-05T19:33:00.394Z,100718.80
2022-11-05T19:35:40.851Z,100717.20
2022-11-05T19:38:15.680Z,100722.20
2022-11-05T19:40:49.918Z,100727.20
2022-11-05T19:43:23.972Z,100734.40
2022-11-05T19:45:58.780Z,100734.20
2022-11-05T19:48:33.278Z,100733.40
2022-11-05T19:51:14.328Z,100736.60
2022-11-05T19:53:48.981Z,100737.60
2022-11-05T19:56:30.099Z,100741.20
2022-11-05T19:59:06.574Z,100744.80
2022-11-05T20:01:40.833Z,100743.00
2022-11-05T20:04:15.571Z,100747.40
2022-11-05T20:06:50.328Z,100748.40
2022-11-05T20:09:24.790Z,100751.40
2022-11-05T20:12:00.152Z,100754.40
2022-11-05T20:14:34.297Z,100752.80
2022-11-05T20:17:08.561Z,100760.00
2022-11-05T20:19:43.773Z,100750.80
2022-11-05T20:22:18.742Z,100757.60
2022-11-05T20:24:53.307Z,100751.80
2022-11-05T20:27:27.719Z,100752.80
2022-11-05T20:30:01.932Z,100749.60
2022-11-05T20:32:35.845Z,100748.60
2022-11-05T20:35:12.835Z,100742.00
2022-11-05T20:37:52.709Z,100741.80
2022-11-05T20:40:28.799Z,100744.00
2022-11-05T20:43:04.125Z,100750.80
2022-11-05T20:45:41.121Z,100745.00
2022-11-05T20:48:15.671Z,100750.80
2022-11-05T20:50:50.674Z,100754.40
2022-11-05T20:53:24.994Z,100768.20
2022-11-05T20:56:03.675Z,100775.00
2022-11-05T20:58:41.478Z,100770.20
2022-11-05T21:01:18.367Z,100783.60
2022-11-05T21:03:53.123Z,100773.20
2022-11-05T21:06:27.586Z,100778.40
2022-11-05T21:09:02.107Z,100781.60
2022-11-05T21:11:57.318Z,100783.80
2022-11-05T21:14:31.819Z,100776.40
2022-11-05T21:17:06.249Z,100779.20
2022-11-05T21:19:40.735Z,100776.40
2022-11-05T21:22:16.318Z,100780.40
2022-11-05T21:24:50.585Z,100781.00
2022-11-05T21:27:24.824Z,100780.60
2022-11-05T21:29:58.812Z,100781.80
2022-11-05T21:32:33.081Z,100779.20
2022-11-05T21:35:08.175Z,100779.80
2022-11-05T21:37:42.147Z,100787.60
2022-11-05T21:40:17.200Z,100794.00
2022-11-05T21:42:51.824Z,100791.60
2022-11-05T21:45:25.862Z,100792.80
2022-11-05T21:48:00.767Z,100789.20
2022-11-05T21:51:07.321Z,100787.40
2022-11-05T21:53:59.317Z,100791.20
2022-11-05T21:56:51.387Z,100787.60
2022-11-05T21:59:45.317Z,100790.80
2022-11-05T22:02:22.484Z,100789.80
2022-11-05T22:05:00.130Z,100792.40
2022-11-05T22:07:37.891Z,100798.40
2022-11-05T22:10:16.597Z,100796.60
2022-11-05T22:12:50.786Z,100802.40
2022-11-05T22:15:25.277Z,100802.60
2022-11-05T22:17:59.149Z,100802.80
2022-11-05T22:20:33.444Z,100802.40
2022-11-05T22:23:11.271Z,100804.60
2022-11-05T22:25:45.854Z,100804.00
2022-11-05T22:28:20.342Z,100809.20
2022-11-05T22:30:54.846Z,100809.20
2022-11-05T22:33:28.715Z,100808.00
2022-11-05T22:36:04.536Z,100806.40
2022-11-05T22:38:39.152Z,100806.60
2022-11-05T22:41:15.856Z,100806.40
2022-11-05T22:43:50.198Z,100805.80
2022-11-05T22:46:27.744Z,100804.80
2022-11-05T22:49:01.852Z,100809.00
2022-11-05T22:51:39.077Z,100812.20
2022-11-05T22:54:14.178Z,100817.60
2022-11-05T22:56:50.301Z,100817.80
2022-11-05T22:59:24.650Z,100816.60
2022-11-05T23:01:58.765Z,100824.60
2022-11-05T23:04:33.376Z,100826.60
2022-11-05T23:07:27.976Z,100817.40
2022-11-05T23:10:20.038Z,100826.60
2022-11-05T23:12:55.854Z,100826.00
2022-11-05T23:15:47.510Z,100817.00
2022-11-05T23:18:39.317Z,100814.00
2022-11-05T23:21:30.946Z,100812.40
2022-11-05T23:24:07.905Z,100811.80
2022-11-05T23:26:51.908Z,100810.80
2022-11-05T23:29:28.712Z,100822.60
2022-11-05T23:32:21.741Z,100819.80
2022-11-05T23:34:58.044Z,100820.80
2022-11-05T23:37:50.694Z,100822.20
2022-11-05T23:40:27.775Z,100820.60
2022-11-05T23:43:20.029Z,100827.20
2022-11-05T23:46:25.879Z,100824.80
2022-11-05T23:48:59.479Z,100829.40
2022-11-05T23:51:33.429Z,100826.80
2022-11-05T23:54:07.513Z,100822.00
2022-11-05T23:56:41.756Z,100825.80
2022-11-05T23:59:15.532Z,100826.80
